Time;durP1;ratioP1;P1;durP2;ratioP2;P2;SDS_P1;SDS_P2;PMS_P1;PMS_P2;Temp;Humidity;BMP_temperature;BMP_pressure;BME280_temperature;BME280_humidity;BME280_pressure;Samples;Min_cycle;Max_cycle;Signal;HPM_P1;HPM_P2
2021/07/11 00:02:05;;;;;;;0.30;0.15;;;;;;;-142.37;100.00;59669.53;4997421;28;20523;-57
2021/07/11 00:04:30;;;;;;;1.13;0.20;;;;;;;-142.37;100.00;59669.53;5015129;28;20068;-57
2021/07/11 00:06:56;;;;;;;0.70;0.30;;;;;;;-142.37;100.00;59669.53;5015322;28;20022;-57
2021/07/11 00:09:21;;;;;;;1.40;0.30;;;;;;;-142.37;100.00;59669.53;5013931;28;20034;-57
2021/07/11 00:11:46;;;;;;;0.43;0.25;;;;;;;-142.37;100.00;59669.53;5015057;28;20361;-57
2021/07/11 00:14:12;;;;;;;1.27;0.30;;;;;;;-142.37;100.00;59669.53;5014912;28;20484;-57
2021/07/11 00:16:37;;;;;;;1.70;0.10;;;;;;;-142.37;100.00;59669.53;5014553;28;20037;-57
2021/07/11 00:19:03;;;;;;;0.70;0.10;;;;;;;-142.37;100.00;59669.53;5014747;28;20014;-56
2021/07/11 00:21:28;;;;;;;0.93;0.20;;;;;;;-142.37;100.00;59669.53;5014906;28;20354;-57
2021/07/11 00:23:54;;;;;;;1.20;0.20;;;;;;;-142.37;100.00;59669.53;5014730;28;20030;-57
2021/07/11 00:26:19;;;;;;;1.63;0.25;;;;;;;-142.37;100.00;59669.53;5014774;28;20030;-58
2021/07/11 00:28:45;;;;;;;1.52;0.40;;;;;;;-142.37;100.00;59669.53;5014705;28;20029;-57
2021/07/11 00:31:10;;;;;;;1.10;0.40;;;;;;;-142.37;100.00;59669.53;5013593;28;20033;-57
2021/07/11 00:33:36;;;;;;;0.30;0.20;;;;;;;-142.37;100.00;59669.53;4998947;28;20084;-57
2021/07/11 00:36:02;;;;;;;0.47;0.13;;;;;;;-142.37;100.00;59669.53;5006755;28;20026;-57
2021/07/11 00:38:27;;;;;;;0.90;0.20;;;;;;;-142.37;100.00;59669.53;5013644;28;20026;-57
2021/07/11 00:40:53;;;;;;;0.98;0.30;;;;;;;-142.37;100.00;59669.53;5014558;28;20077;-57
2021/07/11 00:43:19;;;;;;;2.05;0.40;;;;;;;-142.37;100.00;59669.53;5014392;28;20033;-57
2021/07/11 00:45:44;;;;;;;0.70;0.38;;;;;;;-142.37;100.00;59669.53;5014495;28;20030;-57
2021/07/11 00:48:10;;;;;;;0.55;0.20;;;;;;;-142.37;100.00;59669.53;5014146;28;20034;-57
2021/07/11 00:50:35;;;;;;;0.60;0.20;;;;;;;-142.37;100.00;59669.53;5014367;28;20033;-57
2021/07/11 00:53:01;;;;;;;0.50;0.22;;;;;;;-142.37;100.00;59669.53;5013049;28;20030;-57
2021/07/11 00:55:27;;;;;;;0.25;0.10;;;;;;;-142.37;100.00;59669.53;5014248;28;20032;-57
2021/07/11 00:57:53;;;;;;;0.43;0.17;;;;;;;-142.37;100.00;59669.53;4978475;28;1028115;-57
2021/07/11 01:00:19;;;;;;;1.58;0.50;;;;;;;-142.37;100.00;59669.53;5015220;28;20561;-57
2021/07/11 01:02:56;;;;;;;0.77;0.20;;;;;;;-142.37;100.00;59669.53;5015173;28;20489;-57
2021/07/11 01:05:23;;;;;;;0.63;0.20;;;;;;;-142.37;100.00;59669.53;5015032;28;20075;-57
2021/07/11 01:08:00;;;;;;;1.38;0.35;;;;;;;-142.37;100.00;59669.53;5014993;28;20076;-57
2021/07/11 01:10:31;;;;;;;1.30;0.80;;;;;;;-142.37;100.00;59669.53;5014888;28;20029;-57
2021/07/11 01:12:58;;;;;;;0.30;0.20;;;;;;;-142.37;100.00;59669.53;5013812;28;20380;-57
2021/07/11 01:15:24;;;;;;;1.17;0.30;;;;;;;-142.37;100.00;59669.53;5014748;28;20061;-58
2021/07/11 01:17:53;;;;;;;1.08;0.22;;;;;;;-142.37;100.00;59669.53;5005896;28;20540;-58
2021/07/11 01:20:39;;;;;;;0.95;0.30;;;;;;;-142.37;100.00;59669.53;4995159;28;20048;-58
2021/07/11 01:23:08;;;;;;;1.35;0.35;;;;;;;-142.37;100.00;59669.53;4995053;28;20385;-58
2021/07/11 01:25:43;;;;;;;0.75;0.17;;;;;;;-142.37;100.00;59669.53;4995177;28;20478;-58
2021/07/11 01:28:13;;;;;;;1.17;0.20;;;;;;;-142.37;100.00;59669.53;4995315;28;20026;-57
2021/07/11 01:30:39;;;;;;;0.98;0.35;;;;;;;-142.37;100.00;59669.53;5014815;28;20113;-58
2021/07/11 01:33:09;;;;;;;0.30;0.13;;;;;;;-142.37;100.00;59669.53;5014250;28;20030;-58
2021/07/11 01:35:37;;;;;;;0.20;0.10;;;;;;;-142.37;100.00;59669.53;4993173;28;20026;-57
2021/07/11 01:38:04;;;;;;;1.55;0.22;;;;;;;-142.37;100.00;59669.53;5006869;28;20104;-58
2021/07/11 01:40:30;;;;;;;0.47;0.10;;;;;;;-142.37;100.00;59669.53;5008182;28;20030;-58
2021/07/11 01:42:57;;;;;;;1.80;0.20;;;;;;;-142.37;100.00;59669.53;5005423;28;20030;-58
2021/07/11 01:45:22;;;;;;;0.52;0.30;;;;;;;-142.37;100.00;59669.53;5012940;28;20101;-58
2021/07/11 01:47:48;;;;;;;0.63;0.30;;;;;;;-142.37;100.00;59669.53;5012959;28;20109;-58
2021/07/11 01:50:15;;;;;;;0.60;0.20;;;;;;;-142.37;100.00;59669.53;5012298;28;20026;-59
2021/07/11 01:52:42;;;;;;;0.77;0.10;;;;;;;-142.37;100.00;59669.53;4993919;28;20091;-59
2021/07/11 01:55:09;;;;;;;0.30;0.20;;;;;;;-142.37;100.00;59669.53;4994419;28;20121;-59
2021/07/11 01:57:36;;;;;;;0.20;0.13;;;;;;;-142.37;100.00;59669.53;4993727;28;20022;-59
2021/07/11 02:00:06;;;;;;;0.70;0.10;;;;;;;-142.37;100.00;59669.53;4994157;28;20078;-59
2021/07/11 02:02:31;;;;;;;0.65;0.52;;;;;;;-142.37;100.00;59669.53;4994393;28;20023;-59
2021/07/11 02:04:57;;;;;;;2.72;0.40;;;;;;;-142.37;100.00;59669.53;4994355;28;20041;-59
2021/07/11 02:07:22;;;;;;;1.15;0.20;;;;;;;-142.37;100.00;59669.53;4994296;28;20409;-59
2021/07/11 02:09:47;;;;;;;1.10;0.32;;;;;;;-142.37;100.00;59669.53;4994027;28;20146;-59
2021/07/11 02:12:15;;;;;;;0.77;0.35;;;;;;;-142.37;100.00;59669.53;4994315;28;20057;-59
2021/07/11 02:14:42;;;;;;;0.52;0.20;;;;;;;-142.37;100.00;59669.53;4994253;28;20030;-58
2021/07/11 02:17:14;;;;;;;1.30;0.50;;;;;;;-142.37;100.00;59669.53;4997286;28;20029;-59
2021/07/11 02:19:40;;;;;;;0.85;0.20;;;;;;;-142.37;100.00;59669.53;5013837;28;20363;-59
2021/07/11 02:22:11;;;;;;;0.88;0.20;;;;;;;-142.37;100.00;59669.53;5013467;28;20509;-59
2021/07/11 02:24:38;;;;;;;0.75;0.20;;;;;;;-142.37;100.00;59669.53;5000779;28;20512;-59
2021/07/11 02:27:05;;;;;;;1.42;0.30;;;;;;;-142.37;100.00;59669.53;4993025;28;20065;-59
2021/07/11 02:29:36;;;;;;;1.30;0.30;;;;;;;-142.37;100.00;59669.53;4994160;28;20030;-59
2021/07/11 02:32:04;;;;;;;0.43;0.22;;;;;;;-142.37;100.00;59669.53;4993865;28;20027;-59
2021/07/11 02:34:31;;;;;;;0.50;0.10;;;;;;;-142.37;100.00;59669.53;4993967;28;20030;-59
2021/07/11 02:36:58;;;;;;;0.20;0.10;;;;;;;-142.37;100.00;59669.53;4993997;28;20030;-59
2021/07/11 02:39:24;;;;;;;1.95;0.30;;;;;;;-142.37;100.00;59669.53;4993832;28;20026;-59
2021/07/11 02:41:53;;;;;;;1.77;0.40;;;;;;;-142.37;100.00;59669.53;4993750;28;20547;-59
2021/07/11 02:44:20;;;;;;;2.72;0.32;;;;;;;-142.37;100.00;59669.53;4993624;28;20037;-59
2021/07/11 02:46:49;;;;;;;1.92;0.25;;;;;;;-142.37;100.00;59669.53;4993877;28;20037;-59
2021/07/11 02:49:18;;;;;;;0.45;0.20;;;;;;;-142.37;100.00;59669.53;4993651;28;20146;-59
2021/07/11 02:51:49;;;;;;;1.75;0.10;;;;;;;-142.37;100.00;59669.53;4993906;28;20026;-59
2021/07/11 02:54:26;;;;;;;1.88;0.57;;;;;;;-142.37;100.00;59669.53;4993656;28;20030;-59
2021/07/11 02:56:56;;;;;;;1.17;0.32;;;;;;;-142.37;100.00;59669.53;4993698;28;20030;-59
2021/07/11 02:59:22;;;;;;;0.50;0.25;;;;;;;-142.37;100.00;59669.53;4993583;28;20084;-59
2021/07/11 03:01:48;;;;;;;0.55;0.20;;;;;;;-142.37;100.00;59669.53;4993658;28;20476;-59
2021/07/11 03:04:15;;;;;;;1.20;0.30;;;;;;;-142.37;100.00;59669.53;4993610;28;20425;-59
2021/07/11 03:06:41;;;;;;;1.35;0.30;;;;;;;-142.37;100.00;59669.53;4993849;28;20104;-59
2021/07/11 03:09:06;;;;;;;0.43;0.28;;;;;;;-142.37;100.00;59669.53;4993366;28;20078;-59
2021/07/11 03:11:37;;;;;;;0.77;0.30;;;;;;;-142.37;100.00;59669.53;4993418;28;20050;-60
2021/07/11 03:14:03;;;;;;;1.17;0.20;;;;;;;-142.37;100.00;59669.53;4992683;28;20014;-60
2021/07/11 03:16:29;;;;;;;0.30;0.20;;;;;;;-142.37;100.00;59669.53;4993050;28;20095;-59
2021/07/11 03:18:56;;;;;;;0.38;0.10;;;;;;;-142.37;100.00;59669.53;5010766;28;20032;-59
2021/07/11 03:21:23;;;;;;;1.17;0.20;;;;;;;-142.37;100.00;59669.53;5013045;28;20030;-59
2021/07/11 03:23:51;;;;;;;1.75;0.20;;;;;;;-142.37;100.00;59669.53;5012879;28;20413;-59
2021/07/11 03:26:18;;;;;;;1.15;0.30;;;;;;;-142.37;100.00;59669.53;5013046;28;20026;-59
2021/07/11 03:28:46;;;;;;;0.15;0.03;;;;;;;-142.37;100.00;59669.53;5013103;28;20030;-59
2021/07/11 03:31:11;;;;;;;0.63;0.30;;;;;;;-142.37;100.00;59669.53;5012964;28;20116;-60
2021/07/11 03:33:48;;;;;;;1.92;0.35;;;;;;;-142.37;100.00;59669.53;5013092;28;20105;-59
2021/07/11 03:36:16;;;;;;;1.23;0.25;;;;;;;-142.37;100.00;59669.53;5008842;28;20374;-59
2021/07/11 03:38:48;;;;;;;1.55;0.28;;;;;;;-142.37;100.00;59669.53;4993457;28;20377;-59
2021/07/11 03:41:17;;;;;;;0.50;0.20;;;;;;;-142.37;100.00;59669.53;4993199;28;20022;-59
2021/07/11 03:43:48;;;;;;;0.00;0.00;;;;;;;-142.37;100.00;59669.53;4993313;28;20026;-59
2021/07/11 03:46:14;;;;;;;0.13;0.10;;;;;;;-142.37;100.00;59669.53;4993200;28;20026;-59
2021/07/11 03:48:48;;;;;;;0.65;0.17;;;;;;;-142.37;100.00;59669.53;4993339;28;20034;-59
2021/07/11 03:51:15;;;;;;;1.52;0.22;;;;;;;-142.37;100.00;59669.53;4993543;28;20037;-59
2021/07/11 03:53:42;;;;;;;0.43;0.30;;;;;;;-142.37;100.00;59669.53;4996822;28;20535;-59
2021/07/11 03:56:09;;;;;;;0.32;0.10;;;;;;;-142.37;100.00;59669.53;4996787;28;20057;-59
2021/07/11 03:58:38;;;;;;;1.40;0.43;;;;;;;-142.37;100.00;59669.53;4996614;28;20062;-59
2021/07/11 04:01:04;;;;;;;1.92;0.35;;;;;;;-142.37;100.00;59669.53;4995310;28;20027;-59
2021/07/11 04:03:33;;;;;;;0.35;0.28;;;;;;;-142.37;100.00;59669.53;4996553;28;20030;-59
2021/07/11 04:06:01;;;;;;;0.88;0.30;;;;;;;-142.37;100.00;59669.53;4996461;28;20049;-59
2021/07/11 04:08:28;;;;;;;0.98;0.10;;;;;;;-142.37;100.00;59669.53;4996732;28;20512;-59
2021/07/11 04:10:53;;;;;;;0.60;0.40;;;;;;;-142.37;100.00;59669.53;4996470;28;20030;-59
2021/07/11 04:13:19;;;;;;;0.47;0.10;;;;;;;-142.37;100.00;59669.53;5012720;28;20040;-59
2021/07/11 04:15:53;;;;;;;1.55;0.10;;;;;;;-142.37;100.00;59669.53;5015904;28;20028;-59
2021/07/11 04:18:23;;;;;;;0.95;0.17;;;;;;;-142.37;100.00;59669.53;5003185;28;20378;-59
2021/07/11 04:20:53;;;;;;;0.60;0.20;;;;;;;-142.37;100.00;59669.53;4996295;28;20354;-59
2021/07/11 04:23:23;;;;;;;0.93;0.30;;;;;;;-142.37;100.00;59669.53;4996307;28;20170;-60
2021/07/11 04:25:48;;;;;;;0.85;0.20;;;;;;;-142.37;100.00;59669.53;4996212;28;20026;-59
2021/07/11 04:28:14;;;;;;;0.45;0.20;;;;;;;-142.37;100.00;59669.53;4996004;28;20033;-59
2021/07/11 04:30:40;;;;;;;2.10;0.40;;;;;;;-142.37;100.00;59669.53;4995750;28;20026;-59
2021/07/11 04:33:05;;;;;;;0.95;0.40;;;;;;;-142.37;100.00;59669.53;4995346;28;20492;-59
2021/07/11 04:35:31;;;;;;;1.75;0.30;;;;;;;-142.37;100.00;59669.53;4995977;28;20026;-59
2021/07/11 04:37:57;;;;;;;0.70;0.30;;;;;;;-142.37;100.00;59669.53;4995894;28;20369;-60
2021/07/11 04:40:23;;;;;;;0.22;0.10;;;;;;;-142.37;100.00;59669.53;4996119;28;20026;-59
2021/07/11 04:42:48;;;;;;;0.75;0.10;;;;;;;-142.37;100.00;59669.53;4995845;28;20033;-59
2021/07/11 04:45:16;;;;;;;0.65;0.15;;;;;;;-142.37;100.00;59669.53;4995805;28;20029;-59
2021/07/11 04:47:41;;;;;;;0.50;0.22;;;;;;;-142.37;100.00;59669.53;4995991;28;20081;-59
2021/07/11 04:50:08;;;;;;;0.57;0.10;;;;;;;-142.37;100.00;59669.53;4995646;28;20022;-60
2021/07/11 04:52:34;;;;;;;1.48;0.30;;;;;;;-142.37;100.00;59669.53;4995772;28;20038;-59
2021/07/11 04:54:59;;;;;;;0.93;0.40;;;;;;;-142.37;100.00;59669.53;4995605;28;20033;-59
2021/07/11 04:57:25;;;;;;;0.77;0.20;;;;;;;-142.37;100.00;59669.53;4995836;28;20030;-59
2021/07/11 04:59:50;;;;;;;0.80;0.30;;;;;;;-142.37;100.00;59669.53;4995431;28;20058;-60
2021/07/11 05:02:16;;;;;;;1.08;0.10;;;;;;;-142.37;100.00;59669.53;4998038;28;20597;-60
2021/07/11 05:04:41;;;;;;;1.23;0.10;;;;;;;-142.37;100.00;59669.53;5014345;28;20025;-59
2021/07/11 05:07:07;;;;;;;1.52;0.40;;;;;;;-142.37;100.00;59669.53;4995626;28;20026;-60
2021/07/11 05:09:32;;;;;;;1.08;0.30;;;;;;;-142.37;100.00;59669.53;4995416;28;20052;-59
2021/07/11 05:11:57;;;;;;;0.98;0.20;;;;;;;-142.37;100.00;59669.53;4995244;28;20072;-59
2021/07/11 05:14:23;;;;;;;0.95;0.30;;;;;;;-142.37;100.00;59669.53;4995551;28;20465;-59
2021/07/11 05:16:48;;;;;;;1.42;0.30;;;;;;;-142.37;100.00;59669.53;4995760;28;20458;-59
2021/07/11 05:19:13;;;;;;;0.65;0.30;;;;;;;-142.37;100.00;59669.53;5014688;28;20018;-59
2021/07/11 05:21:39;;;;;;;1.20;0.30;;;;;;;-142.37;100.00;59669.53;5014940;28;20108;-59
2021/07/11 05:24:04;;;;;;;1.55;0.35;;;;;;;-142.37;100.00;59669.53;5014621;28;20022;-59
2021/07/11 05:26:30;;;;;;;1.20;0.40;;;;;;;-142.37;100.00;59669.53;5014810;28;20029;-59
2021/07/11 05:28:55;;;;;;;0.70;0.20;;;;;;;-142.37;100.00;59669.53;5014548;28;20021;-59
2021/07/11 05:31:21;;;;;;;0.55;0.20;;;;;;;-142.37;100.00;59669.53;5014636;28;20034;-59
2021/07/11 05:33:46;;;;;;;0.77;0.30;;;;;;;-142.37;100.00;59669.53;5014614;28;20029;-60
2021/07/11 05:36:12;;;;;;;0.80;0.20;;;;;;;-142.37;100.00;59669.53;5014421;28;20049;-60
2021/07/11 05:38:39;;;;;;;0.30;0.30;;;;;;;-142.37;100.00;59669.53;5014536;28;20022;-60
2021/07/11 05:41:05;;;;;;;0.73;0.45;;;;;;;-142.37;100.00;59669.53;4994576;28;20076;-60
2021/07/11 05:43:30;;;;;;;0.80;0.30;;;;;;;-142.37;100.00;59669.53;4994955;28;20034;-60
2021/07/11 05:45:56;;;;;;;1.45;0.55;;;;;;;-142.37;100.00;59669.53;4994682;28;20412;-60
2021/07/11 05:48:21;;;;;;;0.60;0.20;;;;;;;-142.37;100.00;59669.53;5002925;28;20034;-60
2021/07/11 05:50:46;;;;;;;0.88;0.20;;;;;;;-142.37;100.00;59669.53;5014461;28;20047;-60
2021/07/11 05:53:12;;;;;;;0.75;0.20;;;;;;;-142.37;100.00;59669.53;5014317;28;20029;-60
2021/07/11 05:55:39;;;;;;;0.80;0.47;;;;;;;-142.37;100.00;59669.53;5014183;28;20109;-60
2021/07/11 05:58:05;;;;;;;0.50;0.10;;;;;;;-142.37;100.00;59669.53;5013731;28;20018;-59
2021/07/11 06:00:30;;;;;;;0.63;0.22;;;;;;;-142.37;100.00;59669.53;4994481;28;20034;-60
2021/07/11 06:02:55;;;;;;;0.38;0.38;;;;;;;-142.37;100.00;59669.53;4994476;28;20030;-59
2021/07/11 06:05:21;;;;;;;1.33;0.35;;;;;;;-142.37;100.00;59669.53;4994354;28;20500;-59
2021/07/11 06:07:46;;;;;;;0.57;0.38;;;;;;;-142.37;100.00;59669.53;4993672;28;20529;-60
2021/07/11 06:10:12;;;;;;;0.85;0.30;;;;;;;-142.37;100.00;59669.53;4994173;28;20068;-60
2021/07/11 06:12:38;;;;;;;1.58;0.20;;;;;;;-142.37;100.00;59669.53;4994351;28;20026;-60
2021/07/11 06:15:05;;;;;;;0.68;0.30;;;;;;;-142.37;100.00;59669.53;4993872;28;20500;-60
2021/07/11 06:17:32;;;;;;;0.73;0.40;;;;;;;-142.37;100.00;59669.53;5000307;28;20032;-60
2021/07/11 06:20:04;;;;;;;0.75;0.30;;;;;;;-142.37;100.00;59669.53;5013921;28;20029;-60
2021/07/11 06:22:29;;;;;;;1.95;0.35;;;;;;;-142.37;100.00;59669.53;5013867;28;20025;-60
2021/07/11 06:24:55;;;;;;;1.15;0.32;;;;;;;-142.37;100.00;59669.53;5013559;28;20022;-60
2021/07/11 06:27:20;;;;;;;1.65;0.45;;;;;;;-142.37;100.00;59669.53;5013626;28;20057;-60
2021/07/11 06:29:45;;;;;;;0.80;0.40;;;;;;;-142.37;100.00;59669.53;4996686;28;20026;-60
2021/07/11 06:32:11;;;;;;;1.15;0.28;;;;;;;-142.37;100.00;59669.53;5003887;28;20022;-60
2021/07/11 06:34:36;;;;;;;1.10;0.30;;;;;;;-142.37;100.00;59669.53;5013630;28;20030;-59
2021/07/11 06:37:02;;;;;;;1.50;0.30;;;;;;;-142.37;100.00;59669.53;5013472;28;20037;-60
2021/07/11 06:39:27;;;;;;;0.90;0.40;;;;;;;-142.37;100.00;59669.53;5013459;28;20354;-60
2021/07/11 06:41:52;;;;;;;0.32;0.28;;;;;;;-142.37;100.00;59669.53;5013507;28;20058;-60
2021/07/11 06:44:18;;;;;;;2.05;0.32;;;;;;;-142.37;100.00;59669.53;5013377;28;20069;-60
2021/07/11 06:46:43;;;;;;;1.05;0.30;;;;;;;-142.37;100.00;59669.53;5013238;28;20491;-60
2021/07/11 06:49:08;;;;;;;1.85;0.60;;;;;;;-142.37;100.00;59669.53;5013235;28;20036;-60
2021/07/11 06:51:34;;;;;;;1.35;0.40;;;;;;;-142.37;100.00;59669.53;5013494;28;20029;-60
2021/07/11 06:54:00;;;;;;;0.40;0.30;;;;;;;-142.37;100.00;59669.53;5013547;28;20257;-60
2021/07/11 06:56:25;;;;;;;1.73;0.40;;;;;;;-142.37;100.00;59669.53;5013390;28;20424;-60
2021/07/11 06:58:50;;;;;;;0.98;0.30;;;;;;;-142.37;100.00;59669.53;5013013;28;20042;-60
2021/07/11 07:01:16;;;;;;;3.25;0.40;;;;;;;-142.37;100.00;59669.53;5013338;28;20690;-60
2021/07/11 07:03:41;;;;;;;1.20;0.45;;;;;;;-142.37;100.00;59669.53;5013341;28;20030;-60
2021/07/11 07:06:08;;;;;;;0.93;0.30;;;;;;;-142.37;100.00;59669.53;5013202;28;20022;-60
2021/07/11 07:08:33;;;;;;;1.67;0.50;;;;;;;-142.37;100.00;59669.53;5013332;28;20030;-60
2021/07/11 07:10:59;;;;;;;0.70;0.28;;;;;;;-142.37;100.00;59669.53;5013198;28;20106;-60
2021/07/11 07:13:24;;;;;;;1.17;0.65;;;;;;;-142.37;100.00;59669.53;5013203;28;20380;-59
2021/07/11 07:15:49;;;;;;;0.52;0.32;;;;;;;-142.37;100.00;59669.53;5011934;28;20034;-60
2021/07/11 07:18:15;;;;;;;0.55;0.40;;;;;;;-142.37;100.00;59669.53;5000784;28;20022;-60
2021/07/11 07:20:40;;;;;;;0.57;0.47;;;;;;;-142.37;100.00;59669.53;4993638;28;20042;-60
2021/07/11 07:23:05;;;;;;;1.65;0.73;;;;;;;-142.37;100.00;59669.53;4993427;28;20034;-60
2021/07/11 07:25:31;;;;;;;0.70;0.40;;;;;;;-142.37;100.00;59669.53;4993517;28;20026;-59
2021/07/11 07:27:56;;;;;;;0.98;0.30;;;;;;;-142.37;100.00;59669.53;4996501;28;20034;-60
2021/07/11 07:30:21;;;;;;;0.90;0.35;;;;;;;-142.37;100.00;59669.53;4997447;28;20094;-60
2021/07/11 07:32:48;;;;;;;1.60;0.22;;;;;;;-142.37;100.00;59669.53;4997349;28;20030;-60
2021/07/11 07:35:15;;;;;;;0.40;0.40;;;;;;;-142.37;100.00;59669.53;4997089;28;20026;-60
2021/07/11 07:37:40;;;;;;;0.77;0.55;;;;;;;-142.37;100.00;59669.53;4997251;28;20034;-59
2021/07/11 07:40:07;;;;;;;0.90;0.40;;;;;;;-142.37;100.00;59669.53;4997056;28;20060;-60
2021/07/11 07:42:33;;;;;;;0.77;0.30;;;;;;;-142.37;100.00;59669.53;4997008;28;20487;-60
2021/07/11 07:44:58;;;;;;;0.90;0.60;;;;;;;-142.37;100.00;59669.53;4997078;28;20030;-60
2021/07/11 07:47:24;;;;;;;0.95;0.52;;;;;;;-142.37;100.00;59669.53;4996946;28;20465;-60
2021/07/11 07:49:50;;;;;;;1.33;0.80;;;;;;;-142.37;100.00;59669.53;4996895;28;20060;-60
2021/07/11 07:52:15;;;;;;;2.85;0.63;;;;;;;-142.37;100.00;59669.53;4997107;28;20094;-60
2021/07/11 07:54:41;;;;;;;0.68;0.38;;;;;;;-142.37;100.00;59669.53;4997111;28;20031;-60
2021/07/11 07:57:06;;;;;;;3.75;1.08;;;;;;;-142.37;100.00;59669.53;4996765;28;20033;-60
2021/07/11 07:59:31;;;;;;;0.77;0.40;;;;;;;-142.37;100.00;59669.53;4996500;28;20074;-60
2021/07/11 08:01:57;;;;;;;0.70;0.40;;;;;;;-142.37;100.00;59669.53;4996112;28;20022;-61
2021/07/11 08:04:22;;;;;;;0.55;0.30;;;;;;;-142.37;100.00;59669.53;5002947;28;20053;-60
2021/07/11 08:06:48;;;;;;;1.02;0.50;;;;;;;-142.37;100.00;59669.53;5015526;28;20022;-60
2021/07/11 08:09:16;;;;;;;0.57;0.40;;;;;;;-142.37;100.00;59669.53;5013998;28;20018;-60
2021/07/11 08:11:41;;;;;;;1.95;0.70;;;;;;;-142.37;100.00;59669.53;5016202;28;20472;-60
2021/07/11 08:14:07;;;;;;;0.80;0.50;;;;;;;-142.37;100.00;59669.53;5006529;28;20032;-61
2021/07/11 08:16:32;;;;;;;1.80;0.50;;;;;;;-142.37;100.00;59669.53;5014763;28;20084;-60
2021/07/11 08:18:57;;;;;;;0.95;0.43;;;;;;;-142.37;100.00;59669.53;4997905;28;20105;-60
2021/07/11 08:21:23;;;;;;;0.60;0.50;;;;;;;-142.37;100.00;59669.53;4996515;28;20363;-60
2021/07/11 08:23:48;;;;;;;1.63;0.50;;;;;;;-142.37;100.00;59669.53;4996229;28;20543;-60
2021/07/11 08:26:13;;;;;;;1.05;0.50;;;;;;;-142.37;100.00;59669.53;4996320;28;20049;-60
2021/07/11 08:28:39;;;;;;;2.05;0.75;;;;;;;-142.37;100.00;59669.53;4996158;28;20027;-60
2021/07/11 08:31:04;;;;;;;1.35;0.82;;;;;;;-142.37;100.00;59669.53;4995698;28;20078;-60
2021/07/11 08:33:30;;;;;;;1.50;0.70;;;;;;;-142.37;100.00;59669.53;5013925;28;20121;-60
2021/07/11 08:35:56;;;;;;;1.55;0.50;;;;;;;-142.37;100.00;59669.53;5015521;28;20029;-60
2021/07/11 08:38:21;;;;;;;2.20;0.50;;;;;;;-142.37;100.00;59669.53;5015281;28;20040;-60
2021/07/11 08:40:47;;;;;;;2.28;0.77;;;;;;;-142.37;100.00;59669.53;5015480;28;20026;-60
2021/07/11 08:43:13;;;;;;;1.60;0.55;;;;;;;-142.37;100.00;59669.53;5015775;28;20037;-60
2021/07/11 08:45:38;;;;;;;1.65;0.68;;;;;;;-142.37;100.00;59669.53;5015372;28;20030;-60
2021/07/11 08:48:04;;;;;;;0.50;0.50;;;;;;;-142.37;100.00;59669.53;5015212;28;20525;-60
2021/07/11 08:50:33;;;;;;;1.45;0.50;;;;;;;-142.37;100.00;59669.53;5015426;28;20546;-60
2021/07/11 08:52:59;;;;;;;1.48;0.63;;;;;;;-142.37;100.00;59669.53;5015416;28;20463;-61
2021/07/11 08:55:26;;;;;;;1.35;0.73;;;;;;;-142.37;100.00;59669.53;5015316;28;20128;-60
2021/07/11 08:57:56;;;;;;;1.17;0.50;;;;;;;-142.37;100.00;59669.53;5015306;28;20034;-60
2021/07/11 09:00:34;;;;;;;0.80;0.50;;;;;;;-142.37;100.00;59669.53;5015045;28;20201;-60
2021/07/11 09:03:00;;;;;;;0.80;0.50;;;;;;;-142.37;100.00;59669.53;5013715;28;20127;-60
2021/07/11 09:05:29;;;;;;;1.55;0.70;;;;;;;-142.37;100.00;59669.53;5016064;28;20026;-60
2021/07/11 09:08:05;;;;;;;0.40;0.40;;;;;;;-142.37;100.00;59669.53;5015319;28;20380;-60
2021/07/11 09:10:41;;;;;;;2.20;0.40;;;;;;;-142.37;100.00;59669.53;5014164;28;20030;-61
2021/07/11 09:13:18;;;;;;;0.80;0.40;;;;;;;-142.37;100.00;59669.53;5014886;28;20104;-61
2021/07/11 09:15:50;;;;;;;2.53;0.73;;;;;;;-142.37;100.00;59669.53;5015182;28;20483;-61
2021/07/11 09:18:22;;;;;;;0.85;0.40;;;;;;;-142.37;100.00;59669.53;5001157;28;20511;-60
2021/07/11 09:20:54;;;;;;;2.20;0.75;;;;;;;-142.37;100.00;59669.53;4997299;28;20058;-60
2021/07/11 09:23:21;;;;;;;1.08;0.63;;;;;;;-142.37;100.00;59669.53;5015042;28;20030;-61
2021/07/11 09:26:19;;;;;;;1.40;0.60;;;;;;;-142.37;100.00;59669.53;5015336;28;20021;-61
2021/07/11 09:28:51;;;;;;;1.33;0.50;;;;;;;-142.37;100.00;59669.53;5010898;28;20064;-60
2021/07/11 09:31:18;;;;;;;2.20;0.55;;;;;;;-142.37;100.00;59669.53;5012040;28;20022;-60
2021/07/11 09:33:54;;;;;;;0.65;0.50;;;;;;;-142.37;100.00;59669.53;5012117;28;20112;-61
2021/07/11 09:36:22;;;;;;;0.73;0.60;;;;;;;-142.37;100.00;59669.53;5012007;28;20041;-60
2021/07/11 09:38:50;;;;;;;1.27;0.60;;;;;;;-142.37;100.00;59669.53;5012776;28;20029;-60
2021/07/11 09:41:34;;;;;;;0.60;0.40;;;;;;;-142.37;100.00;59669.53;5012692;28;20049;-61
2021/07/11 09:44:01;;;;;;;2.58;0.80;;;;;;;-142.37;100.00;59669.53;5012584;28;20040;-60
2021/07/11 09:46:28;;;;;;;2.90;0.95;;;;;;;-142.37;100.00;59669.53;5012595;28;20145;-60
2021/07/11 09:48:54;;;;;;;0.75;0.75;;;;;;;-142.37;100.00;59669.53;5011950;28;20025;-61
2021/07/11 09:51:25;;;;;;;0.70;0.70;;;;;;;-142.37;100.00;59669.53;5012317;28;20046;-60
2021/07/11 09:53:52;;;;;;;1.25;0.40;;;;;;;-142.37;100.00;59669.53;5012227;28;20056;-60
2021/07/11 09:56:34;;;;;;;1.95;0.50;;;;;;;-142.37;100.00;59669.53;5012418;28;20129;-61
2021/07/11 09:59:01;;;;;;;1.73;0.80;;;;;;;-142.37;100.00;59669.53;5011092;28;20042;-60
2021/07/11 10:01:29;;;;;;;0.50;0.50;;;;;;;-142.37;100.00;59669.53;5011654;28;20046;-60
2021/07/11 10:03:56;;;;;;;3.90;0.70;;;;;;;-142.37;100.00;59669.53;5012033;28;20037;-61
2021/07/11 10:06:21;;;;;;;1.83;0.82;;;;;;;-142.37;100.00;59669.53;5014470;28;20069;-61
2021/07/11 10:08:46;;;;;;;1.48;0.80;;;;;;;-142.37;100.00;59669.53;5014385;28;20057;-60
2021/07/11 10:11:12;;;;;;;1.20;0.55;;;;;;;-142.37;100.00;59669.53;5014013;28;20548;-61
2021/07/11 10:13:37;;;;;;;1.20;0.50;;;;;;;-142.37;100.00;59669.53;5014428;28;20038;-61
2021/07/11 10:16:09;;;;;;;2.38;0.50;;;;;;;-142.37;100.00;59669.53;5013982;28;20021;-61
2021/07/11 10:18:35;;;;;;;2.65;0.50;;;;;;;-142.37;100.00;59669.53;4998950;28;20022;-61
2021/07/11 10:21:01;;;;;;;1.50;0.80;;;;;;;-142.37;100.00;59669.53;4994612;28;20182;-61
2021/07/11 10:23:37;;;;;;;0.95;0.65;;;;;;;-142.37;100.00;59669.53;4994630;28;20030;-61
2021/07/11 10:26:08;;;;;;;1.23;0.47;;;;;;;-142.37;100.00;59669.53;5006025;28;20475;-60
2021/07/11 10:28:36;;;;;;;0.60;0.57;;;;;;;-142.37;100.00;59669.53;5012881;28;20030;-61
2021/07/11 10:31:03;;;;;;;1.15;0.60;;;;;;;-142.37;100.00;59669.53;5013826;28;20472;-61
2021/07/11 10:33:28;;;;;;;1.25;0.35;;;;;;;-142.37;100.00;59669.53;5014079;28;20072;-61
2021/07/11 10:36:03;;;;;;;0.40;0.40;;;;;;;-142.37;100.00;59669.53;5013675;28;20034;-61
2021/07/11 10:38:51;;;;;;;1.13;0.55;;;;;;;-142.37;100.00;59669.53;5013838;28;20368;-60
2021/07/11 10:41:21;;;;;;;0.77;0.40;;;;;;;-142.37;100.00;59669.53;4994184;28;20026;-60
2021/07/11 10:44:12;;;;;;;0.57;0.40;;;;;;;-142.37;100.00;59669.53;5009676;28;20026;-61
2021/07/11 10:46:46;;;;;;;1.40;0.80;;;;;;;-142.37;100.00;59669.53;5012759;28;20481;-61
2021/07/11 10:49:20;;;;;;;1.60;0.60;;;;;;;-142.37;100.00;59669.53;5013666;28;20025;-60
2021/07/11 10:51:53;;;;;;;2.38;0.60;;;;;;;-142.37;100.00;59669.53;5013936;28;20036;-60
2021/07/11 10:54:22;;;;;;;1.52;0.77;;;;;;;-142.37;100.00;59669.53;5013744;28;20026;-60
2021/07/11 10:56:48;;;;;;;1.80;0.50;;;;;;;-142.37;100.00;59669.53;5013835;28;20022;-61
2021/07/11 10:59:33;;;;;;;1.15;0.47;;;;;;;-142.37;100.00;59669.53;5013245;28;20046;-61
2021/07/11 11:02:02;;;;;;;1.35;0.60;;;;;;;-142.37;100.00;59669.53;5017026;28;20022;-60
2021/07/11 11:04:27;;;;;;;0.70;0.40;;;;;;;-142.37;100.00;59669.53;5033208;28;20466;-61
2021/07/11 11:06:53;;;;;;;0.52;0.52;;;;;;;-142.37;100.00;59669.53;5016946;28;20053;-60
2021/07/11 11:09:47;;;;;;;0.63;0.52;;;;;;;-142.37;100.00;59669.53;5007452;28;20145;-61
2021/07/11 11:12:23;;;;;;;0.80;0.45;;;;;;;-142.37;100.00;59669.53;4996954;28;20038;-61